sensor_id;sensor_type;location;lat;lon;timestamp;pressure;altitude;pressure_sealevel;temperature;humidity
30554;BME280;17335;50.720;7.452;2023-10-31T00:00:20;97505.34;;;11.52;100.00
30554;BME280;17335;50.720;7.452;2023-10-31T00:02:46;97510.34;;;11.55;100.00
30554;BME280;17335;50.720;7.452;2023-10-31T00:05:13;97506.63;;;11.56;100.00
30554;BME280;17335;50.720;7.452;2023-10-31T00:07:40;97508.66;;;11.47;100.00
30554;BME280;17335;50.720;7.452;2023-10-31T00:10:07;97513.38;;;11.45;100.00
30554;BME280;17335;50.720;7.452;2023-10-31T00:12:33;97515.16;;;11.31;100.00
30554;BME280;17335;50.720;7.452;2023-10-31T00:15:00;97509.34;;;11.34;100.00
30554;BME280;17335;50.720;7.452;2023-10-31T00:17:26;97509.31;;;11.27;100.00
30554;BME280;17335;50.720;7.452;2023-10-31T00:19:53;97517.09;;;11.22;100.00
30554;BME280;17335;50.720;7.452;2023-10-31T00:22:20;97526.22;;;11.21;100.00
30554;BME280;17335;50.720;7.452;2023-10-31T00:24:46;97533.22;;;11.22;100.00
30554;BME280;17335;50.720;7.452;2023-10-31T00:27:13;97544.56;;;11.18;100.00
30554;BME280;17335;50.720;7.452;2023-10-31T00:29:41;97536.63;;;11.31;100.00
30554;BME280;17335;50.720;7.452;2023-10-31T00:32:07;97540.31;;;11.30;100.00
30554;BME280;17335;50.720;7.452;2023-10-31T00:34:34;97538.66;;;11.29;100.00
30554;BME280;17335;50.720;7.452;2023-10-31T00:37:00;97536.38;;;11.26;100.00
30554;BME280;17335;50.720;7.452;2023-10-31T00:39:28;97537.97;;;11.20;100.00
30554;BME280;17335;50.720;7.452;2023-10-31T00:41:54;97534.91;;;11.23;100.00
30554;BME280;17335;50.720;7.452;2023-10-31T00:44:21;97537.34;;;11.18;100.00
30554;BME280;17335;50.720;7.452;2023-10-31T00:46:47;97540.16;;;11.10;100.00
30554;BME280;17335;50.720;7.452;2023-10-31T00:49:14;97541.44;;;11.14;100.00
30554;BME280;17335;50.720;7.452;2023-10-31T00:51:40;97546.31;;;11.04;100.00
30554;BME280;17335;50.720;7.452;2023-10-31T00:54:07;97536.44;;;11.11;100.00
30554;BME280;17335;50.720;7.452;2023-10-31T00:56:34;97540.53;;;11.07;100.00
30554;BME280;17335;50.720;7.452;2023-10-31T00:59:01;97542.31;;;11.00;100.00
30554;BME280;17335;50.720;7.452;2023-10-31T01:01:28;97544.81;;;11.01;100.00
30554;BME280;17335;50.720;7.452;2023-10-31T01:03:54;97546.31;;;11.04;100.00
30554;BME280;17335;50.720;7.452;2023-10-31T01:06:21;97544.63;;;11.03;100.00
30554;BME280;17335;50.720;7.452;2023-10-31T01:08:47;97547.63;;;10.93;100.00
30554;BME280;17335;50.720;7.452;2023-10-31T01:11:14;97541.63;;;10.91;100.00
30554;BME280;17335;50.720;7.452;2023-10-31T01:13:40;97542.84;;;10.88;100.00
30554;BME280;17335;50.720;7.452;2023-10-31T01:16:07;97558.31;;;10.86;100.00
30554;BME280;17335;50.720;7.452;2023-10-31T01:18:33;97557.66;;;10.84;100.00
30554;BME280;17335;50.720;7.452;2023-10-31T01:21:00;97561.81;;;10.87;100.00
30554;BME280;17335;50.720;7.452;2023-10-31T01:23:27;97567.44;;;10.92;100.00
30554;BME280;17335;50.720;7.452;2023-10-31T01:25:53;97570.97;;;10.93;100.00
30554;BME280;17335;50.720;7.452;2023-10-31T01:28:20;97569.81;;;11.02;100.00
30554;BME280;17335;50.720;7.452;2023-10-31T01:30:46;97573.53;;;11.01;100.00
30554;BME280;17335;50.720;7.452;2023-10-31T01:33:13;97570.59;;;10.96;100.00
30554;BME280;17335;50.720;7.452;2023-10-31T01:35:40;97572.63;;;10.94;100.00
30554;BME280;17335;50.720;7.452;2023-10-31T01:38:06;97574.28;;;10.95;100.00
30554;BME280;17335;50.720;7.452;2023-10-31T01:40:33;97571.72;;;10.86;100.00
30554;BME280;17335;50.720;7.452;2023-10-31T01:42:59;97574.28;;;10.95;100.00
30554;BME280;17335;50.720;7.452;2023-10-31T01:45:26;97573.81;;;10.91;100.00
30554;BME280;17335;50.720;7.452;2023-10-31T01:47:52;97578.13;;;10.85;100.00
30554;BME280;17335;50.720;7.452;2023-10-31T01:50:19;97577.38;;;10.92;100.00
30554;BME280;17335;50.720;7.452;2023-10-31T01:52:46;97588.22;;;10.83;100.00
30554;BME280;17335;50.720;7.452;2023-10-31T01:55:13;97587.31;;;10.76;100.00
30554;BME280;17335;50.720;7.452;2023-10-31T01:57:40;97584.22;;;10.79;100.00
30554;BME280;17335;50.720;7.452;2023-10-31T02:00:07;97590.56;;;10.72;100.00
30554;BME280;17335;50.720;7.452;2023-10-31T02:02:34;97594.44;;;10.69;100.00
30554;BME280;17335;50.720;7.452;2023-10-31T02:05:04;97596.84;;;10.64;100.00
30554;BME280;17335;50.720;7.452;2023-10-31T02:07:31;97604.63;;;10.59;100.00
30554;BME280;17335;50.720;7.452;2023-10-31T02:09:58;97605.66;;;10.58;100.00
30554;BME280;17335;50.720;7.452;2023-10-31T02:12:34;97610.31;;;10.49;100.00
30554;BME280;17335;50.720;7.452;2023-10-31T02:15:02;97600.75;;;10.46;100.00
30554;BME280;17335;50.720;7.452;2023-10-31T02:17:29;97602.44;;;10.47;100.00
30554;BME280;17335;50.720;7.452;2023-10-31T02:19:55;97585.63;;;10.39;100.00
30554;BME280;17335;50.720;7.452;2023-10-31T02:22:22;97580.81;;;10.34;100.00
30554;BME280;17335;50.720;7.452;2023-10-31T02:24:49;97590.41;;;10.43;100.00
30554;BME280;17335;50.720;7.452;2023-10-31T02:27:15;97601.78;;;10.30;100.00
30554;BME280;17335;50.720;7.452;2023-10-31T02:29:42;97599.38;;;10.21;100.00
30554;BME280;17335;50.720;7.452;2023-10-31T02:32:08;97594.94;;;10.13;100.00
30554;BME280;17335;50.720;7.452;2023-10-31T02:34:35;97596.41;;;10.16;100.00
30554;BME280;17335;50.720;7.452;2023-10-31T02:37:02;97592.81;;;10.08;100.00
30554;BME280;17335;50.720;7.452;2023-10-31T02:39:28;97594.56;;;10.01;100.00
30554;BME280;17335;50.720;7.452;2023-10-31T02:41:55;97596.75;;;9.83;100.00
30554;BME280;17335;50.720;7.452;2023-10-31T02:44:22;97602.75;;;9.70;100.00
30554;BME280;17335;50.720;7.452;2023-10-31T02:46:49;97603.75;;;9.69;100.00
30554;BME280;17335;50.720;7.452;2023-10-31T02:49:15;97610.97;;;9.68;100.00
30554;BME280;17335;50.720;7.452;2023-10-31T02:51:42;97603.22;;;9.73;100.00
30554;BME280;17335;50.720;7.452;2023-10-31T02:54:08;97603.00;;;9.60;100.00
30554;BME280;17335;50.720;7.452;2023-10-31T02:56:35;97607.78;;;9.50;100.00
30554;BME280;17335;50.720;7.452;2023-10-31T02:59:01;97604.28;;;9.49;100.00
30554;BME280;17335;50.720;7.452;2023-10-31T03:01:28;97613.19;;;9.42;100.00
30554;BME280;17335;50.720;7.452;2023-10-31T03:03:55;97622.09;;;9.42;100.00
30554;BME280;17335;50.720;7.452;2023-10-31T03:06:22;97625.59;;;9.43;100.00
30554;BME280;17335;50.720;7.452;2023-10-31T03:08:48;97624.94;;;9.41;100.00
30554;BME280;17335;50.720;7.452;2023-10-31T03:11:25;97630.94;;;9.43;100.00
30554;BME280;17335;50.720;7.452;2023-10-31T03:13:52;97627.63;;;9.41;100.00
30554;BME280;17335;50.720;7.452;2023-10-31T03:16:23;97624.09;;;9.40;100.00
30554;BME280;17335;50.720;7.452;2023-10-31T03:18:49;97624.56;;;9.44;100.00
30554;BME280;17335;50.720;7.452;2023-10-31T03:21:17;97626.81;;;9.55;100.00
30554;BME280;17335;50.720;7.452;2023-10-31T03:23:48;97635.88;;;9.54;100.00
30554;BME280;17335;50.720;7.452;2023-10-31T03:26:16;97628.41;;;9.64;100.00
30554;BME280;17335;50.720;7.452;2023-10-31T03:28:43;97629.16;;;9.73;100.00
30554;BME280;17335;50.720;7.452;2023-10-31T03:31:11;97627.63;;;9.79;100.00
30554;BME280;17335;50.720;7.452;2023-10-31T03:33:39;97623.09;;;9.79;100.00
30554;BME280;17335;50.720;7.452;2023-10-31T03:36:05;97627.16;;;9.75;100.00
30554;BME280;17335;50.720;7.452;2023-10-31T03:38:32;97629.50;;;9.93;100.00
30554;BME280;17335;50.720;7.452;2023-10-31T03:40:59;97630.22;;;9.87;100.00
30554;BME280;17335;50.720;7.452;2023-10-31T03:43:28;97631.69;;;9.89;100.00
30554;BME280;17335;50.720;7.452;2023-10-31T03:45:55;97634.03;;;9.92;100.00
30554;BME280;17335;50.720;7.452;2023-10-31T03:48:22;97638.47;;;9.85;100.00
30554;BME280;17335;50.720;7.452;2023-10-31T03:50:48;97640.97;;;9.87;100.00
30554;BME280;17335;50.720;7.452;2023-10-31T03:53:16;97645.81;;;9.83;100.00
30554;BME280;17335;50.720;7.452;2023-10-31T03:55:42;97651.75;;;9.79;100.00
30554;BME280;17335;50.720;7.452;2023-10-31T03:58:09;97657.38;;;9.84;100.00
30554;BME280;17335;50.720;7.452;2023-10-31T04:00:35;97646.84;;;9.82;100.00
30554;BME280;17335;50.720;7.452;2023-10-31T04:03:02;97646.38;;;9.79;100.00
30554;BME280;17335;50.720;7.452;2023-10-31T04:05:29;97651.75;;;9.93;100.00
30554;BME280;17335;50.720;7.452;2023-10-31T04:07:55;97648.91;;;9.95;100.00
30554;BME280;17335;50.720;7.452;2023-10-31T04:10:22;97658.22;;;9.84;100.00
30554;BME280;17335;50.720;7.452;2023-10-31T04:12:48;97657.31;;;9.92;100.00
30554;BME280;17335;50.720;7.452;2023-10-31T04:15:15;97660.56;;;10.02;100.00
30554;BME280;17335;50.720;7.452;2023-10-31T04:17:41;97663.91;;;10.04;100.00
30554;BME280;17335;50.720;7.452;2023-10-31T04:20:08;97674.41;;;9.91;100.00
30554;BME280;17335;50.720;7.452;2023-10-31T04:22:35;97667.84;;;9.93;100.00
30554;BME280;17335;50.720;7.452;2023-10-31T04:25:02;97668.56;;;9.87;100.00
30554;BME280;17335;50.720;7.452;2023-10-31T04:27:29;97671.78;;;9.83;100.00
30554;BME280;17335;50.720;7.452;2023-10-31T04:29:55;97665.44;;;9.84;100.00
30554;BME280;17335;50.720;7.452;2023-10-31T04:32:22;97685.47;;;9.88;100.00
30554;BME280;17335;50.720;7.452;2023-10-31T04:34:48;97689.28;;;9.93;100.00
30554;BME280;17335;50.720;7.452;2023-10-31T04:37:15;97691.34;;;10.06;100.00
30554;BME280;17335;50.720;7.452;2023-10-31T04:39:41;97682.38;;;9.99;100.00
30554;BME280;17335;50.720;7.452;2023-10-31T04:42:08;97681.44;;;10.07;100.00
30554;BME280;17335;50.720;7.452;2023-10-31T04:44:34;97684.25;;;10.13;100.00
30554;BME280;17335;50.720;7.452;2023-10-31T04:47:01;97683.97;;;10.08;100.00
30554;BME280;17335;50.720;7.452;2023-10-31T04:49:28;97689.22;;;10.02;100.00
30554;BME280;17335;50.720;7.452;2023-10-31T04:51:54;97693.84;;;10.08;100.00
30554;BME280;17335;50.720;7.452;2023-10-31T04:54:20;97695.13;;;9.97;100.00
30554;BME280;17335;50.720;7.452;2023-10-31T04:56:47;97696.59;;;10.00;100.00
30554;BME280;17335;50.720;7.452;2023-10-31T04:59:14;97702.16;;;9.98;100.00
30554;BME280;17335;50.720;7.452;2023-10-31T05:01:40;97699.03;;;10.09;100.00
30554;BME280;17335;50.720;7.452;2023-10-31T05:04:07;97688.66;;;10.06;100.00
30554;BME280;17335;50.720;7.452;2023-10-31T05:06:39;97695.78;;;9.99;100.00
30554;BME280;17335;50.720;7.452;2023-10-31T05:09:05;97704.19;;;9.96;100.00
30554;BME280;17335;50.720;7.452;2023-10-31T05:11:33;97708.72;;;9.95;100.00
30554;BME280;17335;50.720;7.452;2023-10-31T05:13:59;97716.75;;;9.95;100.00
30554;BME280;17335;50.720;7.452;2023-10-31T05:16:26;97722.66;;;9.91;100.00
30554;BME280;17335;50.720;7.452;2023-10-31T05:18:53;97726.44;;;9.97;100.00
30554;BME280;17335;50.720;7.452;2023-10-31T05:21:20;97728.72;;;9.85;100.00
30554;BME280;17335;50.720;7.452;2023-10-31T05:23:50;97728.53;;;9.86;100.00
30554;BME280;17335;50.720;7.452;2023-10-31T05:26:17;97731.97;;;9.95;100.00
30554;BME280;17335;50.720;7.452;2023-10-31T05:28:43;97729.31;;;9.95;100.00
30554;BME280;17335;50.720;7.452;2023-10-31T05:31:10;97731.22;;;9.86;100.00
30554;BME280;17335;50.720;7.452;2023-10-31T05:33:36;97733.66;;;9.96;100.00
30554;BME280;17335;50.720;7.452;2023-10-31T05:36:03;97730.16;;;9.95;100.00
30554;BME280;17335;50.720;7.452;2023-10-31T05:38:30;97729.69;;;9.92;100.00
30554;BME280;17335;50.720;7.452;2023-10-31T05:40:56;97737.22;;;9.88;100.00
30554;BME280;17335;50.720;7.452;2023-10-31T05:43:23;97736.75;;;9.85;100.00
30554;BME280;17335;50.720;7.452;2023-10-31T05:45:49;97744.16;;;9.83;100.00
30554;BME280;17335;50.720;7.452;2023-10-31T05:48:16;97747.47;;;9.85;100.00
30554;BME280;17335;50.720;7.452;2023-10-31T05:50:43;97752.19;;;9.83;100.00
30554;BME280;17335;50.720;7.452;2023-10-31T05:53:10;97756.84;;;9.89;100.00
30554;BME280;17335;50.720;7.452;2023-10-31T05:55:40;97758.97;;;9.93;100.00
30554;BME280;17335;50.720;7.452;2023-10-31T05:58:07;97757.31;;;9.92;100.00
30554;BME280;17335;50.720;7.452;2023-10-31T06:00:33;97766.47;;;9.98;100.00
30554;BME280;17335;50.720;7.452;2023-10-31T06:03:01;97773.41;;;9.92;100.00
30554;BME280;17335;50.720;7.452;2023-10-31T06:05:29;97780.91;;;9.97;100.00
30554;BME280;17335;50.720;7.452;2023-10-31T06:07:55;97772.88;;;9.97;100.00
30554;BME280;17335;50.720;7.452;2023-10-31T06:10:22;97774.34;;;10.00;100.00
30554;BME280;17335;50.720;7.452;2023-10-31T06:12:49;97778.53;;;10.02;100.00
30554;BME280;17335;50.720;7.452;2023-10-31T06:15:17;97779.06;;;9.98;100.00
30554;BME280;17335;50.720;7.452;2023-10-31T06:17:44;97783.38;;;9.99;100.00
30554;BME280;17335;50.720;7.452;2023-10-31T06:20:11;97776.03;;;10.01;100.00
30554;BME280;17335;50.720;7.452;2023-10-31T06:22:37;97795.13;;;9.98;100.00
30554;BME280;17335;50.720;7.452;2023-10-31T06:25:04;97785.97;;;9.92;100.00
30554;BME280;17335;50.720;7.452;2023-10-31T06:27:30;97801.94;;;9.85;100.00
30554;BME280;17335;50.720;7.452;2023-10-31T06:29:57;97792.38;;;9.83;100.00
30554;BME280;17335;50.720;7.452;2023-10-31T06:32:43;97799.97;;;10.02;100.00
30554;BME280;17335;50.720;7.452;2023-10-31T06:35:10;97801.97;;;10.00;100.00
30554;BME280;17335;50.720;7.452;2023-10-31T06:37:37;97807.34;;;10.00;100.00
30554;BME280;17335;50.720;7.452;2023-10-31T06:40:05;97816.41;;;9.99;100.00
30554;BME280;17335;50.720;7.452;2023-10-31T06:42:32;97815.38;;;10.00;100.00
30554;BME280;17335;50.720;7.452;2023-10-31T06:44:58;97823.81;;;9.97;100.00
30554;BME280;17335;50.720;7.452;2023-10-31T06:47:25;97824.41;;;10.07;100.00
30554;BME280;17335;50.720;7.452;2023-10-31T06:49:51;97822.59;;;10.00;100.00
30554;BME280;17335;50.720;7.452;2023-10-31T06:52:18;97822.38;;;10.09;100.00
30554;BME280;17335;50.720;7.452;2023-10-31T06:54:44;97839.69;;;9.99;100.00
30554;BME280;17335;50.720;7.452;2023-10-31T06:57:11;97829.75;;;10.07;100.00
30554;BME280;17335;50.720;7.452;2023-10-31T06:59:37;97818.31;;;10.13;100.00
30554;BME280;17335;50.720;7.452;2023-10-31T07:02:04;97820.50;;;10.10;100.00
30554;BME280;17335;50.720;7.452;2023-10-31T07:04:31;97829.16;;;10.20;100.00
30554;BME280;17335;50.720;7.452;2023-10-31T07:06:57;97842.72;;;10.19;100.00
30554;BME280;17335;50.720;7.452;2023-10-31T07:09:25;97846.41;;;10.18;100.00
30554;BME280;17335;50.720;7.452;2023-10-31T07:11:52;97839.41;;;10.17;100.00
30554;BME280;17335;50.720;7.452;2023-10-31T07:14:19;97833.56;;;10.13;100.00
30554;BME280;17335;50.720;7.452;2023-10-31T07:16:47;97843.09;;;10.16;100.00
30554;BME280;17335;50.720;7.452;2023-10-31T07:19:14;97854.09;;;10.21;100.00
30554;BME280;17335;50.720;7.452;2023-10-31T07:21:40;97856.59;;;10.22;100.00
30554;BME280;17335;50.720;7.452;2023-10-31T07:24:07;97856.78;;;10.21;100.00
30554;BME280;17335;50.720;7.452;2023-10-31T07:26:35;97861.69;;;10.17;100.00
30554;BME280;17335;50.720;7.452;2023-10-31T07:29:02;97862.28;;;10.27;100.00
30554;BME280;17335;50.720;7.452;2023-10-31T07:31:28;97875.25;;;10.16;100.00
30554;BME280;17335;50.720;7.452;2023-10-31T07:33:55;97872.56;;;10.16;100.00
30554;BME280;17335;50.720;7.452;2023-10-31T07:36:22;97878.59;;;10.18;100.00
30554;BME280;17335;50.720;7.452;2023-10-31T07:38:49;97880.22;;;10.27;100.00
30554;BME280;17335;50.720;7.452;2023-10-31T07:41:15;97875.03;;;10.25;100.00
30554;BME280;17335;50.720;7.452;2023-10-31T07:43:42;97876.84;;;10.33;100.00
30554;BME280;17335;50.720;7.452;2023-10-31T07:46:08;97879.50;;;10.33;100.00
30554;BME280;17335;50.720;7.452;2023-10-31T07:48:35;97881.84;;;10.36;100.00
30554;BME280;17335;50.720;7.452;2023-10-31T07:51:03;97882.31;;;10.40;100.00
30554;BME280;17335;50.720;7.452;2023-10-31T07:53:29;97890.53;;;10.38;100.00
30554;BME280;17335;50.720;7.452;2023-10-31T07:55:56;97896.63;;;10.32;100.00
30554;BME280;17335;50.720;7.452;2023-10-31T07:58:22;97902.66;;;10.34;100.00
30554;BME280;17335;50.720;7.452;2023-10-31T08:00:49;97894.44;;;10.36;100.00
30554;BME280;17335;50.720;7.452;2023-10-31T08:03:15;97903.78;;;10.40;100.00
30554;BME280;17335;50.720;7.452;2023-10-31T08:05:42;97904.38;;;10.50;100.00
30554;BME280;17335;50.720;7.452;2023-10-31T08:08:09;97915.28;;;10.48;100.00
30554;BME280;17335;50.720;7.452;2023-10-31T08:10:35;97901.88;;;10.48;100.00
30554;BME280;17335;50.720;7.452;2023-10-31T08:13:02;97922.50;;;10.48;100.00
30554;BME280;17335;50.720;7.452;2023-10-31T08:15:28;97920.22;;;10.60;100.00
30554;BME280;17335;50.720;7.452;2023-10-31T08:17:55;97933.72;;;10.51;100.00
30554;BME280;17335;50.720;7.452;2023-10-31T08:20:21;97931.66;;;10.54;100.00
30554;BME280;17335;50.720;7.452;2023-10-31T08:22:48;97930.31;;;10.58;100.00
30554;BME280;17335;50.720;7.452;2023-10-31T08:25:15;97938.66;;;10.63;100.00
30554;BME280;17335;50.720;7.452;2023-10-31T08:27:41;97931.78;;;10.60;100.00
30554;BME280;17335;50.720;7.452;2023-10-31T08:30:08;97934.31;;;10.62;100.00
30554;BME280;17335;50.720;7.452;2023-10-31T08:32:35;97931.63;;;10.62;100.00
30554;BME280;17335;50.720;7.452;2023-10-31T08:35:02;97928.94;;;10.62;100.00
30554;BME280;17335;50.720;7.452;2023-10-31T08:37:29;97932.75;;;10.67;100.00
30554;BME280;17335;50.720;7.452;2023-10-31T08:39:55;97933.47;;;10.61;100.00
30554;BME280;17335;50.720;7.452;2023-10-31T08:42:22;97945.63;;;10.72;100.00
30554;BME280;17335;50.720;7.452;2023-10-31T08:44:48;97950.00;;;10.73;100.00
30554;BME280;17335;50.720;7.452;2023-10-31T08:47:16;97942.94;;;10.72;100.00
30554;BME280;17335;50.720;7.452;2023-10-31T08:49:44;97947.00;;;10.68;100.00
30554;BME280;17335;50.720;7.452;2023-10-31T08:52:11;97952.69;;;10.73;100.00
30554;BME280;17335;50.720;7.452;2023-10-31T08:54:38;97960.91;;;10.72;100.00
30554;BME280;17335;50.720;7.452;2023-10-31T08:57:04;97971.47;;;10.73;100.00
30554;BME280;17335;50.720;7.452;2023-10-31T08:59:30;97979.50;;;10.73;100.00
30554;BME280;17335;50.720;7.452;2023-10-31T09:01:57;97983.44;;;10.85;100.00
30554;BME280;17335;50.720;7.452;2023-10-31T09:04:24;97977.25;;;10.85;100.00
30554;BME280;17335;50.720;7.452;2023-10-31T09:06:50;97984.16;;;10.79;100.00
30554;BME280;17335;50.720;7.452;2023-10-31T09:09:17;97988.34;;;10.82;100.00
30554;BME280;17335;50.720;7.452;2023-10-31T09:11:43;97990.53;;;10.78;100.00
30554;BME280;17335;50.720;7.452;2023-10-31T09:14:10;97993.47;;;10.92;100.00
30554;BME280;17335;50.720;7.452;2023-10-31T09:16:37;97979.00;;;10.93;100.00
30554;BME280;17335;50.720;7.452;2023-10-31T09:19:04;97988.81;;;10.85;100.00
30554;BME280;17335;50.720;7.452;2023-10-31T09:21:31;97995.47;;;10.89;100.00
30554;BME280;17335;50.720;7.452;2023-10-31T09:23:57;97996.81;;;10.94;100.00
30554;BME280;17335;50.720;7.452;2023-10-31T09:26:24;97994.41;;;10.99;100.00
30554;BME280;17335;50.720;7.452;2023-10-31T09:28:50;97999.59;;;11.00;100.00
30554;BME280;17335;50.720;7.452;2023-10-31T09:31:17;98015.28;;;11.12;100.00
30554;BME280;17335;50.720;7.452;2023-10-31T09:33:45;98016.88;;;11.21;100.00
30554;BME280;17335;50.720;7.452;2023-10-31T09:36:13;98017.53;;;11.23;100.00
30554;BME280;17335;50.720;7.452;2023-10-31T09:38:40;98022.06;;;11.22;100.00
30554;BME280;17335;50.720;7.452;2023-10-31T09:41:07;98017.53;;;11.23;100.00
30554;BME280;17335;50.720;7.452;2023-10-31T09:43:34;98022.72;;;11.24;100.00
30554;BME280;17335;50.720;7.452;2023-10-31T09:46:00;98015.13;;;11.28;100.00
30554;BME280;17335;50.720;7.452;2023-10-31T09:48:28;98015.69;;;11.23;100.00
30554;BME280;17335;50.720;7.452;2023-10-31T09:50:55;98019.19;;;11.24;100.00
30554;BME280;17335;50.720;7.452;2023-10-31T09:53:23;98020.03;;;11.24;100.00
30554;BME280;17335;50.720;7.452;2023-10-31T09:55:51;98026.72;;;11.29;100.00
30554;BME280;17335;50.720;7.452;2023-10-31T09:58:20;98021.88;;;11.24;100.00
30554;BME280;17335;50.720;7.452;2023-10-31T10:00:47;98035.31;;;11.24;100.00
30554;BME280;17335;50.720;7.452;2023-10-31T10:03:13;98039.13;;;11.30;100.00
30554;BME280;17335;50.720;7.452;2023-10-31T10:05:44;98036.34;;;11.38;100.00
30554;BME280;17335;50.720;7.452;2023-10-31T10:08:10;98035.00;;;11.42;100.00
30554;BME280;17335;50.720;7.452;2023-10-31T10:10:37;98032.13;;;11.58;100.00
30554;BME280;17335;50.720;7.452;2023-10-31T10:13:04;98034.38;;;11.70;100.00
30554;BME280;17335;50.720;7.452;2023-10-31T10:15:42;98038.19;;;11.75;100.00
30554;BME280;17335;50.720;7.452;2023-10-31T10:18:09;98037.91;;;11.85;100.00
30554;BME280;17335;50.720;7.452;2023-10-31T10:20:54;98033.47;;;11.92;100.00
30554;BME280;17335;50.720;7.452;2023-10-31T10:23:20;98038.78;;;12.00;100.00
30554;BME280;17335;50.720;7.452;2023-10-31T10:25:50;98049.03;;;12.12;100.00
30554;BME280;17335;50.720;7.452;2023-10-31T10:28:17;98046.63;;;12.17;100.00
30554;BME280;17335;50.720;7.452;2023-10-31T10:30:46;98053.16;;;12.23;100.00
30554;BME280;17335;50.720;7.452;2023-10-31T10:33:14;98050.13;;;12.32;100.00
30554;BME280;17335;50.720;7.452;2023-10-31T10:35:42;98051.91;;;12.40;100.00
30554;BME280;17335;50.720;7.452;2023-10-31T10:38:16;98053.19;;;12.44;100.00
30554;BME280;17335;50.720;7.452;2023-10-31T10:40:44;98051.22;;;12.53;100.00
30554;BME280;17335;50.720;7.452;2023-10-31T10:43:22;98068.31;;;12.60;100.00
30554;BME280;17335;50.720;7.452;2023-10-31T10:45:56;98059.28;;;12.53;100.00
30554;BME280;17335;50.720;7.452;2023-10-31T10:48:27;98050.00;;;12.70;100.00
30554;BME280;17335;50.720;7.452;2023-10-31T10:50:59;98047.59;;;12.82;100.00
30554;BME280;17335;50.720;7.452;2023-10-31T10:53:30;98044.13;;;13.03;100.00
30554;BME280;17335;50.720;7.452;2023-10-31T10:56:03;98051.28;;;12.96;100.00
30554;BME280;17335;50.720;7.452;2023-10-31T10:58:37;98044.72;;;12.84;100.00
30554;BME280;17335;50.720;7.452;2023-10-31T11:01:08;98042.16;;;12.75;100.00
30554;BME280;17335;50.720;7.452;2023-10-31T11:03:35;98044.72;;;12.84;100.00
30554;BME280;17335;50.720;7.452;2023-10-31T11:06:03;98051.59;;;12.86;100.00
30554;BME280;17335;50.720;7.452;2023-10-31T11:08:30;98056.03;;;12.72;100.00
30554;BME280;17335;50.720;7.452;2023-10-31T11:10:57;98055.59;;;12.75;100.00
30554;BME280;17335;50.720;7.452;2023-10-31T11:13:24;98057.13;;;12.63;100.00
30554;BME280;17335;50.720;7.452;2023-10-31T11:15:53;98053.69;;;12.69;100.00
30554;BME280;17335;50.720;7.452;2023-10-31T11:18:23;98052.53;;;12.57;100.00
30554;BME280;17335;50.720;7.452;2023-10-31T11:20:49;98061.63;;;12.56;100.00
30554;BME280;17335;50.720;7.452;2023-10-31T11:23:16;98067.72;;;12.65;100.00
30554;BME280;17335;50.720;7.452;2023-10-31T11:25:43;98061.41;;;12.72;100.00
30554;BME280;17335;50.720;7.452;2023-10-31T11:28:17;98055.56;;;12.69;100.00
30554;BME280;17335;50.720;7.452;2023-10-31T11:30:46;98063.13;;;12.80;100.00
30554;BME280;17335;50.720;7.452;2023-10-31T11:33:16;98049.84;;;12.79;100.00
30554;BME280;17335;50.720;7.452;2023-10-31T11:35:49;98049.41;;;12.75;100.00
30554;BME280;17335;50.720;7.452;2023-10-31T11:38:16;98042.56;;;12.72;100.00
30554;BME280;17335;50.720;7.452;2023-10-31T11:43:20;98045.25;;;12.72;100.00
30554;BME280;17335;50.720;7.452;2023-10-31T11:45:48;98051.34;;;12.81;100.00
30554;BME280;17335;50.720;7.452;2023-10-31T11:48:15;98049.47;;;12.82;100.00
30554;BME280;17335;50.720;7.452;2023-10-31T11:50:42;98050.44;;;12.95;100.00
30554;BME280;17335;50.720;7.452;2023-10-31T11:53:12;98048.72;;;13.09;100.00
30554;BME280;17335;50.720;7.452;2023-10-31T11:55:42;98044.47;;;13.22;100.00
30554;BME280;17335;50.720;7.452;2023-10-31T11:58:26;98048.19;;;13.42;100.00
30554;BME280;17335;50.720;7.452;2023-10-31T12:01:01;98060.63;;;13.22;100.00
30554;BME280;17335;50.720;7.452;2023-10-31T12:03:43;98046.53;;;13.20;100.00
30554;BME280;17335;50.720;7.452;2023-10-31T12:06:14;98056.41;;;13.12;100.00
30554;BME280;17335;50.720;7.452;2023-10-31T12:08:42;98066.47;;;13.25;100.00
30554;BME280;17335;50.720;7.452;2023-10-31T12:13:59;98060.41;;;13.38;100.00
30554;BME280;17335;50.720;7.452;2023-10-31T12:16:29;98048.91;;;13.29;100.00
30554;BME280;17335;50.720;7.452;2023-10-31T12:19:00;98051.59;;;13.29;100.00
30554;BME280;17335;50.720;7.452;2023-10-31T12:21:37;98057.66;;;13.31;100.00
30554;BME280;17335;50.720;7.452;2023-10-31T12:24:05;98059.16;;;13.34;100.00
30554;BME280;17335;50.720;7.452;2023-10-31T12:26:33;98064.88;;;13.31;100.00
30554;BME280;17335;50.720;7.452;2023-10-31T12:29:14;98064.97;;;13.38;100.00
30554;BME280;17335;50.720;7.452;2023-10-31T12:31:49;98062.94;;;13.25;100.00
30554;BME280;17335;50.720;7.452;2023-10-31T12:34:20;98052.84;;;13.05;100.00
30554;BME280;17335;50.720;7.452;2023-10-31T12:36:49;98064.00;;;13.24;100.00
30554;BME280;17335;50.720;7.452;2023-10-31T12:39:18;98045.84;;;13.32;100.00
30554;BME280;17335;50.720;7.452;2023-10-31T12:41:47;98042.88;;;13.49;100.00
30554;BME280;17335;50.720;7.452;2023-10-31T12:44:19;98049.75;;;13.52;100.00
30554;BME280;17335;50.720;7.452;2023-10-31T12:46:47;98064.63;;;13.47;100.00
30554;BME280;17335;50.720;7.452;2023-10-31T12:49:18;98063.19;;;13.30;100.00
30554;BME280;17335;50.720;7.452;2023-10-31T12:54:35;98058.34;;;12.97;100.00
30554;BME280;17335;50.720;7.452;2023-10-31T12:57:04;98063.53;;;12.99;100.00
30554;BME280;17335;50.720;7.452;2023-10-31T12:59:32;98063.72;;;12.97;100.00
30554;BME280;17335;50.720;7.452;2023-10-31T13:01:59;98067.13;;;12.84;100.00